sensor_id;sensor_type;location;lat;lon;timestamp;P1;durP1;ratioP1;P2;durP2;ratioP2
55993;SDS011;67425;52.126;20.638;2023-04-25T00:00:29;16.70;;;11.27;;
55993;SDS011;67425;52.126;20.638;2023-04-25T00:02:54;14.90;;;11.32;;
55993;SDS011;67425;52.126;20.638;2023-04-25T00:05:21;15.60;;;10.88;;
55993;SDS011;67425;52.126;20.638;2023-04-25T00:07:48;15.55;;;10.85;;
55993;SDS011;67425;52.126;20.638;2023-04-25T00:10:14;22.45;;;11.30;;
55993;SDS011;67425;52.126;20.638;2023-04-25T00:12:40;16.15;;;10.98;;
55993;SDS011;67425;52.126;20.638;2023-04-25T00:15:06;18.15;;;11.85;;
55993;SDS011;67425;52.126;20.638;2023-04-25T00:17:32;18.88;;;10.38;;
55993;SDS011;67425;52.126;20.638;2023-04-25T00:19:57;15.80;;;10.45;;
55993;SDS011;67425;52.126;20.638;2023-04-25T00:22:23;21.30;;;10.10;;
55993;SDS011;67425;52.126;20.638;2023-04-25T00:24:48;17.45;;;9.63;;
55993;SDS011;67425;52.126;20.638;2023-04-25T00:27:14;14.18;;;9.45;;
55993;SDS011;67425;52.126;20.638;2023-04-25T00:29:39;13.63;;;9.38;;
55993;SDS011;67425;52.126;20.638;2023-04-25T00:32:05;15.60;;;9.65;;
55993;SDS011;67425;52.126;20.638;2023-04-25T00:34:30;17.35;;;9.13;;
55993;SDS011;67425;52.126;20.638;2023-04-25T00:36:55;13.45;;;8.25;;
55993;SDS011;67425;52.126;20.638;2023-04-25T00:39:21;12.60;;;8.32;;
55993;SDS011;67425;52.126;20.638;2023-04-25T00:41:47;20.92;;;7.68;;
55993;SDS011;67425;52.126;20.638;2023-04-25T00:44:13;18.13;;;8.27;;
55993;SDS011;67425;52.126;20.638;2023-04-25T00:46:41;12.95;;;7.88;;
55993;SDS011;67425;52.126;20.638;2023-04-25T00:49:07;13.13;;;8.57;;
55993;SDS011;67425;52.126;20.638;2023-04-25T00:51:33;11.68;;;8.02;;
55993;SDS011;67425;52.126;20.638;2023-04-25T00:53:59;12.95;;;8.45;;
55993;SDS011;67425;52.126;20.638;2023-04-25T00:56:25;12.48;;;8.23;;
55993;SDS011;67425;52.126;20.638;2023-04-25T00:58:52;12.88;;;7.72;;
55993;SDS011;67425;52.126;20.638;2023-04-25T01:01:21;13.52;;;6.97;;
55993;SDS011;67425;52.126;20.638;2023-04-25T01:03:47;14.95;;;8.27;;
55993;SDS011;67425;52.126;20.638;2023-04-25T01:06:14;10.55;;;8.13;;
55993;SDS011;67425;52.126;20.638;2023-04-25T01:08:41;11.15;;;8.38;;
55993;SDS011;67425;52.126;20.638;2023-04-25T01:11:06;13.43;;;7.85;;
55993;SDS011;67425;52.126;20.638;2023-04-25T01:13:32;13.40;;;7.68;;
55993;SDS011;67425;52.126;20.638;2023-04-25T01:15:58;9.02;;;7.28;;
55993;SDS011;67425;52.126;20.638;2023-04-25T01:18:24;9.05;;;6.80;;
55993;SDS011;67425;52.126;20.638;2023-04-25T01:20:53;10.65;;;8.00;;
55993;SDS011;67425;52.126;20.638;2023-04-25T01:23:20;8.95;;;6.78;;
55993;SDS011;67425;52.126;20.638;2023-04-25T01:25:46;10.02;;;7.88;;
55993;SDS011;67425;52.126;20.638;2023-04-25T01:28:12;10.40;;;6.65;;
55993;SDS011;67425;52.126;20.638;2023-04-25T01:30:38;11.65;;;7.00;;
55993;SDS011;67425;52.126;20.638;2023-04-25T01:33:04;16.63;;;8.15;;
55993;SDS011;67425;52.126;20.638;2023-04-25T01:35:30;9.00;;;6.90;;
55993;SDS011;67425;52.126;20.638;2023-04-25T01:37:57;10.63;;;7.18;;
55993;SDS011;67425;52.126;20.638;2023-04-25T01:40:22;13.20;;;7.00;;
55993;SDS011;67425;52.126;20.638;2023-04-25T01:42:49;12.73;;;6.18;;
55993;SDS011;67425;52.126;20.638;2023-04-25T01:45:15;11.23;;;7.28;;
55993;SDS011;67425;52.126;20.638;2023-04-25T01:47:41;10.60;;;6.95;;
55993;SDS011;67425;52.126;20.638;2023-04-25T01:50:08;8.65;;;6.72;;
55993;SDS011;67425;52.126;20.638;2023-04-25T01:52:34;9.07;;;7.05;;
55993;SDS011;67425;52.126;20.638;2023-04-25T01:55:00;11.75;;;6.88;;
55993;SDS011;67425;52.126;20.638;2023-04-25T01:57:27;12.07;;;7.20;;
55993;SDS011;67425;52.126;20.638;2023-04-25T01:59:54;12.88;;;7.22;;
55993;SDS011;67425;52.126;20.638;2023-04-25T02:02:24;13.55;;;6.93;;
55993;SDS011;67425;52.126;20.638;2023-04-25T02:04:50;12.45;;;7.00;;
55993;SDS011;67425;52.126;20.638;2023-04-25T02:07:15;15.18;;;7.28;;
55993;SDS011;67425;52.126;20.638;2023-04-25T02:09:40;9.50;;;6.75;;
55993;SDS011;67425;52.126;20.638;2023-04-25T02:12:07;11.85;;;6.20;;
55993;SDS011;67425;52.126;20.638;2023-04-25T02:14:33;11.55;;;7.38;;
55993;SDS011;67425;52.126;20.638;2023-04-25T02:16:59;11.60;;;7.28;;
55993;SDS011;67425;52.126;20.638;2023-04-25T02:19:24;8.88;;;6.85;;
55993;SDS011;67425;52.126;20.638;2023-04-25T02:21:50;12.50;;;7.80;;
55993;SDS011;67425;52.126;20.638;2023-04-25T02:24:15;14.95;;;6.97;;
55993;SDS011;67425;52.126;20.638;2023-04-25T02:26:41;12.57;;;6.60;;
55993;SDS011;67425;52.126;20.638;2023-04-25T02:29:06;11.77;;;7.15;;
55993;SDS011;67425;52.126;20.638;2023-04-25T02:31:32;10.43;;;6.93;;
55993;SDS011;67425;52.126;20.638;2023-04-25T02:33:57;13.13;;;6.57;;
55993;SDS011;67425;52.126;20.638;2023-04-25T02:36:22;8.57;;;6.60;;
55993;SDS011;67425;52.126;20.638;2023-04-25T02:38:48;15.43;;;7.10;;
55993;SDS011;67425;52.126;20.638;2023-04-25T02:41:15;14.77;;;6.80;;
55993;SDS011;67425;52.126;20.638;2023-04-25T02:43:40;8.95;;;6.30;;
55993;SDS011;67425;52.126;20.638;2023-04-25T02:46:05;9.32;;;6.05;;
55993;SDS011;67425;52.126;20.638;2023-04-25T02:48:32;12.43;;;6.40;;
55993;SDS011;67425;52.126;20.638;2023-04-25T02:50:58;9.50;;;6.68;;
55993;SDS011;67425;52.126;20.638;2023-04-25T02:53:23;6.25;;;5.40;;
55993;SDS011;67425;52.126;20.638;2023-04-25T02:55:48;6.97;;;5.05;;
55993;SDS011;67425;52.126;20.638;2023-04-25T02:58:14;9.25;;;6.13;;
55993;SDS011;67425;52.126;20.638;2023-04-25T03:00:40;6.13;;;5.05;;
55993;SDS011;67425;52.126;20.638;2023-04-25T03:03:05;10.40;;;5.35;;
55993;SDS011;67425;52.126;20.638;2023-04-25T03:05:31;8.48;;;5.60;;
55993;SDS011;67425;52.126;20.638;2023-04-25T03:07:56;7.38;;;5.13;;
55993;SDS011;67425;52.126;20.638;2023-04-25T03:10:21;12.20;;;6.05;;
55993;SDS011;67425;52.126;20.638;2023-04-25T03:12:47;7.32;;;5.10;;
55993;SDS011;67425;52.126;20.638;2023-04-25T03:15:12;7.32;;;5.03;;
55993;SDS011;67425;52.126;20.638;2023-04-25T03:17:37;10.70;;;5.07;;
55993;SDS011;67425;52.126;20.638;2023-04-25T03:20:03;4.63;;;4.22;;
55993;SDS011;67425;52.126;20.638;2023-04-25T03:22:29;5.57;;;5.00;;
55993;SDS011;67425;52.126;20.638;2023-04-25T03:24:54;6.53;;;5.10;;
55993;SDS011;67425;52.126;20.638;2023-04-25T03:27:20;7.30;;;4.47;;
55993;SDS011;67425;52.126;20.638;2023-04-25T03:29:45;6.70;;;4.90;;
55993;SDS011;67425;52.126;20.638;2023-04-25T03:32:11;8.30;;;5.18;;
55993;SDS011;67425;52.126;20.638;2023-04-25T03:34:36;5.82;;;4.75;;
55993;SDS011;67425;52.126;20.638;2023-04-25T03:37:01;6.47;;;5.22;;
55993;SDS011;67425;52.126;20.638;2023-04-25T03:39:27;6.65;;;4.90;;
55993;SDS011;67425;52.126;20.638;2023-04-25T03:41:52;6.60;;;5.60;;
55993;SDS011;67425;52.126;20.638;2023-04-25T03:44:17;6.82;;;4.47;;
55993;SDS011;67425;52.126;20.638;2023-04-25T03:46:43;9.70;;;6.10;;
55993;SDS011;67425;52.126;20.638;2023-04-25T03:49:08;10.45;;;5.07;;
55993;SDS011;67425;52.126;20.638;2023-04-25T03:51:33;6.50;;;5.20;;
55993;SDS011;67425;52.126;20.638;2023-04-25T03:53:59;7.32;;;5.30;;
55993;SDS011;67425;52.126;20.638;2023-04-25T03:56:24;6.97;;;5.20;;
55993;SDS011;67425;52.126;20.638;2023-04-25T03:58:50;13.27;;;6.13;;
55993;SDS011;67425;52.126;20.638;2023-04-25T04:01:15;8.27;;;5.15;;
55993;SDS011;67425;52.126;20.638;2023-04-25T04:03:41;9.30;;;6.15;;
55993;SDS011;67425;52.126;20.638;2023-04-25T04:06:07;10.35;;;6.85;;
55993;SDS011;67425;52.126;20.638;2023-04-25T04:08:33;11.75;;;6.82;;
55993;SDS011;67425;52.126;20.638;2023-04-25T04:10:58;12.25;;;6.85;;
55993;SDS011;67425;52.126;20.638;2023-04-25T04:13:27;9.23;;;5.55;;
55993;SDS011;67425;52.126;20.638;2023-04-25T04:15:53;10.75;;;6.70;;
55993;SDS011;67425;52.126;20.638;2023-04-25T04:18:19;11.07;;;7.03;;
55993;SDS011;67425;52.126;20.638;2023-04-25T04:20:44;11.52;;;7.65;;
55993;SDS011;67425;52.126;20.638;2023-04-25T04:23:10;13.02;;;7.95;;
55993;SDS011;67425;52.126;20.638;2023-04-25T04:25:35;9.95;;;7.38;;
55993;SDS011;67425;52.126;20.638;2023-04-25T04:28:01;13.45;;;8.75;;
55993;SDS011;67425;52.126;20.638;2023-04-25T04:30:27;10.50;;;7.43;;
55993;SDS011;67425;52.126;20.638;2023-04-25T04:32:55;11.40;;;7.20;;
55993;SDS011;67425;52.126;20.638;2023-04-25T04:35:21;12.10;;;7.53;;
55993;SDS011;67425;52.126;20.638;2023-04-25T04:37:47;13.00;;;8.27;;
55993;SDS011;67425;52.126;20.638;2023-04-25T04:40:13;11.90;;;7.30;;
55993;SDS011;67425;52.126;20.638;2023-04-25T04:42:40;16.92;;;7.75;;
55993;SDS011;67425;52.126;20.638;2023-04-25T04:45:06;12.45;;;7.47;;
55993;SDS011;67425;52.126;20.638;2023-04-25T04:47:32;13.63;;;8.90;;
55993;SDS011;67425;52.126;20.638;2023-04-25T04:49:58;18.73;;;8.15;;
55993;SDS011;67425;52.126;20.638;2023-04-25T04:52:24;10.23;;;7.07;;
55993;SDS011;67425;52.126;20.638;2023-04-25T04:54:49;10.98;;;6.65;;
55993;SDS011;67425;52.126;20.638;2023-04-25T04:57:15;12.00;;;7.40;;
55993;SDS011;67425;52.126;20.638;2023-04-25T04:59:41;13.93;;;8.63;;
55993;SDS011;67425;52.126;20.638;2023-04-25T05:02:06;10.95;;;7.90;;
55993;SDS011;67425;52.126;20.638;2023-04-25T05:04:32;14.38;;;7.97;;
55993;SDS011;67425;52.126;20.638;2023-04-25T05:06:57;12.05;;;7.78;;
55993;SDS011;67425;52.126;20.638;2023-04-25T05:09:22;14.23;;;7.22;;
55993;SDS011;67425;52.126;20.638;2023-04-25T05:11:50;12.40;;;7.72;;
55993;SDS011;67425;52.126;20.638;2023-04-25T05:14:16;11.40;;;8.18;;
55993;SDS011;67425;52.126;20.638;2023-04-25T05:16:42;11.18;;;7.70;;
55993;SDS011;67425;52.126;20.638;2023-04-25T05:19:08;9.57;;;7.65;;
55993;SDS011;67425;52.126;20.638;2023-04-25T05:21:33;23.02;;;7.78;;
55993;SDS011;67425;52.126;20.638;2023-04-25T05:23:59;12.80;;;8.02;;
55993;SDS011;67425;52.126;20.638;2023-04-25T05:26:25;10.85;;;8.43;;
55993;SDS011;67425;52.126;20.638;2023-04-25T05:28:50;13.18;;;7.97;;
55993;SDS011;67425;52.126;20.638;2023-04-25T05:31:16;11.05;;;8.02;;
55993;SDS011;67425;52.126;20.638;2023-04-25T05:33:41;12.02;;;8.40;;
55993;SDS011;67425;52.126;20.638;2023-04-25T05:36:07;12.93;;;8.32;;
55993;SDS011;67425;52.126;20.638;2023-04-25T05:38:32;12.38;;;8.32;;
55993;SDS011;67425;52.126;20.638;2023-04-25T05:40:58;13.68;;;8.43;;
55993;SDS011;67425;52.126;20.638;2023-04-25T05:43:23;18.25;;;7.97;;
55993;SDS011;67425;52.126;20.638;2023-04-25T05:45:48;9.93;;;8.02;;
55993;SDS011;67425;52.126;20.638;2023-04-25T05:48:15;13.10;;;7.85;;
55993;SDS011;67425;52.126;20.638;2023-04-25T05:50:40;12.90;;;7.75;;
55993;SDS011;67425;52.126;20.638;2023-04-25T05:53:06;8.30;;;6.93;;
55993;SDS011;67425;52.126;20.638;2023-04-25T05:55:31;10.38;;;7.78;;
55993;SDS011;67425;52.126;20.638;2023-04-25T05:57:56;9.43;;;7.25;;
55993;SDS011;67425;52.126;20.638;2023-04-25T06:00:22;13.90;;;6.78;;
55993;SDS011;67425;52.126;20.638;2023-04-25T06:02:47;9.13;;;7.15;;
55993;SDS011;67425;52.126;20.638;2023-04-25T06:05:13;7.10;;;6.38;;
55993;SDS011;67425;52.126;20.638;2023-04-25T06:07:38;13.32;;;7.55;;
55993;SDS011;67425;52.126;20.638;2023-04-25T06:10:04;9.32;;;7.07;;
55993;SDS011;67425;52.126;20.638;2023-04-25T06:12:31;8.73;;;6.93;;
55993;SDS011;67425;52.126;20.638;2023-04-25T06:14:58;10.85;;;7.97;;
55993;SDS011;67425;52.126;20.638;2023-04-25T06:17:23;10.15;;;6.72;;
55993;SDS011;67425;52.126;20.638;2023-04-25T06:19:48;9.52;;;6.93;;
55993;SDS011;67425;52.126;20.638;2023-04-25T06:22:14;8.40;;;6.75;;
55993;SDS011;67425;52.126;20.638;2023-04-25T06:24:39;13.27;;;7.85;;
55993;SDS011;67425;52.126;20.638;2023-04-25T06:27:04;9.95;;;7.28;;
55993;SDS011;67425;52.126;20.638;2023-04-25T06:29:30;10.10;;;7.00;;
55993;SDS011;67425;52.126;20.638;2023-04-25T06:31:55;7.28;;;6.18;;
55993;SDS011;67425;52.126;20.638;2023-04-25T06:34:22;10.32;;;6.53;;
55993;SDS011;67425;52.126;20.638;2023-04-25T06:36:47;10.52;;;5.38;;
55993;SDS011;67425;52.126;20.638;2023-04-25T06:39:12;10.18;;;5.20;;
55993;SDS011;67425;52.126;20.638;2023-04-25T06:41:38;8.57;;;5.97;;
55993;SDS011;67425;52.126;20.638;2023-04-25T06:44:03;9.10;;;5.65;;
55993;SDS011;67425;52.126;20.638;2023-04-25T06:46:29;6.68;;;5.93;;
55993;SDS011;67425;52.126;20.638;2023-04-25T06:48:54;8.40;;;6.80;;
55993;SDS011;67425;52.126;20.638;2023-04-25T06:51:20;9.10;;;6.32;;
55993;SDS011;67425;52.126;20.638;2023-04-25T06:53:45;10.57;;;6.78;;
55993;SDS011;67425;52.126;20.638;2023-04-25T06:56:11;12.90;;;6.05;;
55993;SDS011;67425;52.126;20.638;2023-04-25T06:58:36;9.82;;;5.75;;
55993;SDS011;67425;52.126;20.638;2023-04-25T07:01:01;8.68;;;5.85;;
55993;SDS011;67425;52.126;20.638;2023-04-25T07:03:27;5.18;;;4.65;;
55993;SDS011;67425;52.126;20.638;2023-04-25T07:05:52;7.75;;;5.50;;
55993;SDS011;67425;52.126;20.638;2023-04-25T07:08:17;9.82;;;5.05;;
55993;SDS011;67425;52.126;20.638;2023-04-25T07:10:43;5.90;;;4.70;;
55993;SDS011;67425;52.126;20.638;2023-04-25T07:13:08;4.75;;;4.25;;
55993;SDS011;67425;52.126;20.638;2023-04-25T07:15:34;6.20;;;4.75;;
55993;SDS011;67425;52.126;20.638;2023-04-25T07:17:59;6.40;;;4.53;;
55993;SDS011;67425;52.126;20.638;2023-04-25T07:20:25;6.43;;;4.40;;
55993;SDS011;67425;52.126;20.638;2023-04-25T07:22:52;7.03;;;4.22;;
55993;SDS011;67425;52.126;20.638;2023-04-25T07:25:18;7.72;;;4.10;;
55993;SDS011;67425;52.126;20.638;2023-04-25T07:27:44;5.47;;;4.95;;
55993;SDS011;67425;52.126;20.638;2023-04-25T07:30:09;8.05;;;3.92;;
55993;SDS011;67425;52.126;20.638;2023-04-25T07:32:35;6.70;;;4.05;;
55993;SDS011;67425;52.126;20.638;2023-04-25T07:35:00;6.18;;;4.00;;
55993;SDS011;67425;52.126;20.638;2023-04-25T07:37:27;4.80;;;3.80;;
55993;SDS011;67425;52.126;20.638;2023-04-25T07:39:52;4.13;;;3.80;;
55993;SDS011;67425;52.126;20.638;2023-04-25T07:42:17;4.07;;;3.70;;
55993;SDS011;67425;52.126;20.638;2023-04-25T07:44:43;4.07;;;3.63;;
55993;SDS011;67425;52.126;20.638;2023-04-25T07:47:09;3.85;;;3.55;;
55993;SDS011;67425;52.126;20.638;2023-04-25T07:49:35;4.28;;;3.63;;
55993;SDS011;67425;52.126;20.638;2023-04-25T07:52:01;3.97;;;3.65;;
55993;SDS011;67425;52.126;20.638;2023-04-25T07:54:26;4.72;;;4.05;;
55993;SDS011;67425;52.126;20.638;2023-04-25T07:56:52;4.47;;;4.07;;
55993;SDS011;67425;52.126;20.638;2023-04-25T07:59:17;3.33;;;2.60;;
55993;SDS011;67425;52.126;20.638;2023-04-25T08:01:43;3.75;;;3.45;;
55993;SDS011;67425;52.126;20.638;2023-04-25T08:04:08;4.80;;;3.55;;
55993;SDS011;67425;52.126;20.638;2023-04-25T08:06:33;4.43;;;4.03;;
55993;SDS011;67425;52.126;20.638;2023-04-25T08:08:59;4.10;;;3.30;;
55993;SDS011;67425;52.126;20.638;2023-04-25T08:11:24;4.15;;;3.75;;
55993;SDS011;67425;52.126;20.638;2023-04-25T08:13:50;14.48;;;4.28;;
55993;SDS011;67425;52.126;20.638;2023-04-25T08:16:15;4.43;;;4.13;;
55993;SDS011;67425;52.126;20.638;2023-04-25T08:18:40;5.97;;;4.55;;
55993;SDS011;67425;52.126;20.638;2023-04-25T08:21:06;4.35;;;3.95;;
55993;SDS011;67425;52.126;20.638;2023-04-25T08:23:33;6.38;;;4.43;;
55993;SDS011;67425;52.126;20.638;2023-04-25T08:25:59;4.45;;;4.05;;
55993;SDS011;67425;52.126;20.638;2023-04-25T08:28:24;4.07;;;3.33;;
55993;SDS011;67425;52.126;20.638;2023-04-25T08:30:50;4.70;;;4.25;;
55993;SDS011;67425;52.126;20.638;2023-04-25T08:33:15;6.55;;;4.00;;
55993;SDS011;67425;52.126;20.638;2023-04-25T08:35:40;5.90;;;4.13;;
55993;SDS011;67425;52.126;20.638;2023-04-25T08:38:06;4.85;;;4.32;;
55993;SDS011;67425;52.126;20.638;2023-04-25T08:40:31;4.88;;;4.43;;
55993;SDS011;67425;52.126;20.638;2023-04-25T08:43:02;4.93;;;4.43;;
55993;SDS011;67425;52.126;20.638;2023-04-25T08:45:29;4.47;;;4.07;;
55993;SDS011;67425;52.126;20.638;2023-04-25T08:47:56;6.88;;;4.28;;
55993;SDS011;67425;52.126;20.638;2023-04-25T08:50:22;4.40;;;4.00;;
55993;SDS011;67425;52.126;20.638;2023-04-25T08:52:48;4.63;;;4.20;;
55993;SDS011;67425;52.126;20.638;2023-04-25T08:55:15;4.85;;;4.30;;
55993;SDS011;67425;52.126;20.638;2023-04-25T08:57:41;5.10;;;4.70;;
55993;SDS011;67425;52.126;20.638;2023-04-25T09:00:11;5.00;;;4.55;;
55993;SDS011;67425;52.126;20.638;2023-04-25T09:02:37;8.55;;;6.05;;
55993;SDS011;67425;52.126;20.638;2023-04-25T09:05:04;7.18;;;5.03;;
55993;SDS011;67425;52.126;20.638;2023-04-25T09:07:31;6.38;;;5.78;;
55993;SDS011;67425;52.126;20.638;2023-04-25T09:09:57;8.30;;;5.80;;
55993;SDS011;67425;52.126;20.638;2023-04-25T09:12:24;6.05;;;5.38;;
55993;SDS011;67425;52.126;20.638;2023-04-25T09:15:02;9.20;;;6.20;;
55993;SDS011;67425;52.126;20.638;2023-04-25T09:17:30;6.25;;;5.07;;
55993;SDS011;67425;52.126;20.638;2023-04-25T09:19:55;6.85;;;6.15;;
55993;SDS011;67425;52.126;20.638;2023-04-25T09:22:30;6.22;;;5.70;;
55993;SDS011;67425;52.126;20.638;2023-04-25T09:24:56;6.75;;;6.00;;
55993;SDS011;67425;52.126;20.638;2023-04-25T09:27:21;10.95;;;6.57;;
55993;SDS011;67425;52.126;20.638;2023-04-25T09:29:56;12.27;;;5.82;;
55993;SDS011;67425;52.126;20.638;2023-04-25T09:32:23;6.78;;;5.30;;
55993;SDS011;67425;52.126;20.638;2023-04-25T09:34:50;6.80;;;5.80;;
55993;SDS011;67425;52.126;20.638;2023-04-25T09:37:20;5.40;;;4.90;;
55993;SDS011;67425;52.126;20.638;2023-04-25T09:42:26;6.03;;;5.38;;
55993;SDS011;67425;52.126;20.638;2023-04-25T09:44:54;9.02;;;5.97;;
55993;SDS011;67425;52.126;20.638;2023-04-25T09:47:20;10.93;;;6.05;;
55993;SDS011;67425;52.126;20.638;2023-04-25T09:49:48;5.32;;;4.90;;
55993;SDS011;67425;52.126;20.638;2023-04-25T09:52:15;5.28;;;4.78;;
55993;SDS011;67425;52.126;20.638;2023-04-25T09:54:42;6.13;;;5.13;;
55993;SDS011;67425;52.126;20.638;2023-04-25T09:57:17;9.60;;;4.75;;
55993;SDS011;67425;52.126;20.638;2023-04-25T09:59:46;4.97;;;4.50;;
55993;SDS011;67425;52.126;20.638;2023-04-25T10:04:52;6.30;;;3.50;;
55993;SDS011;67425;52.126;20.638;2023-04-25T10:07:23;4.88;;;3.80;;
55993;SDS011;67425;52.126;20.638;2023-04-25T10:09:58;5.10;;;3.78;;
55993;SDS011;67425;52.126;20.638;2023-04-25T10:12:26;5.45;;;3.80;;
55993;SDS011;67425;52.126;20.638;2023-04-25T10:14:52;4.05;;;3.65;;
55993;SDS011;67425;52.126;20.638;2023-04-25T10:17:17;5.18;;;3.55;;
55993;SDS011;67425;52.126;20.638;2023-04-25T10:19:45;5.93;;;3.40;;
55993;SDS011;67425;52.126;20.638;2023-04-25T10:22:17;8.48;;;3.00;;
55993;SDS011;67425;52.126;20.638;2023-04-25T10:24:48;4.07;;;3.60;;
55993;SDS011;67425;52.126;20.638;2023-04-25T10:27:15;5.38;;;3.58;;
55993;SDS011;67425;52.126;20.638;2023-04-25T10:29:41;3.45;;;3.25;;
55993;SDS011;67425;52.126;20.638;2023-04-25T10:32:08;3.75;;;3.25;;
55993;SDS011;67425;52.126;20.638;2023-04-25T10:34:43;4.30;;;3.25;;
55993;SDS011;67425;52.126;20.638;2023-04-25T10:37:12;6.85;;;2.80;;
55993;SDS011;67425;52.126;20.638;2023-04-25T10:39:39;3.53;;;3.22;;
55993;SDS011;67425;52.126;20.638;2023-04-25T10:42:06;3.22;;;2.95;;
55993;SDS011;67425;52.126;20.638;2023-04-25T10:44:33;3.22;;;3.00;;
55993;SDS011;67425;52.126;20.638;2023-04-25T10:46:59;5.43;;;4.07;;
55993;SDS011;67425;52.126;20.638;2023-04-25T10:49:36;3.83;;;3.35;;
55993;SDS011;67425;52.126;20.638;2023-04-25T10:54:51;4.00;;;3.70;;
55993;SDS011;67425;52.126;20.638;2023-04-25T10:57:31;7.78;;;3.25;;
55993;SDS011;67425;52.126;20.638;2023-04-25T11:00:07;4.20;;;2.97;;
55993;SDS011;67425;52.126;20.638;2023-04-25T11:02:44;3.03;;;2.83;;
55993;SDS011;67425;52.126;20.638;2023-04-25T11:05:54;3.67;;;3.33;;
55993;SDS011;67425;52.126;20.638;2023-04-25T11:08:01;5.50;;;3.70;;
55993;SDS011;67425;52.126;20.638;2023-04-25T11:10:31;7.47;;;5.35;;
55993;SDS011;67425;52.126;20.638;2023-04-25T11:13:00;5.15;;;4.50;;
55993;SDS011;67425;52.126;20.638;2023-04-25T11:15:26;3.35;;;3.00;;
55993;SDS011;67425;52.126;20.638;2023-04-25T11:17:52;5.68;;;3.22;;
55993;SDS011;67425;52.126;20.638;2023-04-25T11:20:18;9.30;;;4.03;;
55993;SDS011;67425;52.126;20.638;2023-04-25T11:22:44;3.97;;;3.58;;
55993;SDS011;67425;52.126;20.638;2023-04-25T11:25:11;5.10;;;3.58;;
55993;SDS011;67425;52.126;20.638;2023-04-25T11:27:39;4.32;;;3.58;;
55993;SDS011;67425;52.126;20.638;2023-04-25T11:30:14;4.15;;;3.72;;
55993;SDS011;67425;52.126;20.638;2023-04-25T11:32:43;3.50;;;3.17;;
55993;SDS011;67425;52.126;20.638;2023-04-25T11:35:11;5.55;;;3.53;;
55993;SDS011;67425;52.126;20.638;2023-04-25T11:37:40;3.85;;;3.35;;
55993;SDS011;67425;52.126;20.638;2023-04-25T11:40:07;5.32;;;3.50;;
55993;SDS011;67425;52.126;20.638;2023-04-25T11:42:41;3.90;;;3.47;;
55993;SDS011;67425;52.126;20.638;2023-04-25T11:45:09;8.38;;;4.95;;
55993;SDS011;67425;52.126;20.638;2023-04-25T11:47:35;5.93;;;4.72;;
55993;SDS011;67425;52.126;20.638;2023-04-25T11:50:04;5.85;;;3.22;;
55993;SDS011;67425;52.126;20.638;2023-04-25T11:52:42;6.32;;;3.90;;
55993;SDS011;67425;52.126;20.638;2023-04-25T11:55:10;7.25;;;4.18;;
55993;SDS011;67425;52.126;20.638;2023-04-25T11:57:38;4.15;;;3.25;;
55993;SDS011;67425;52.126;20.638;2023-04-25T12:00:06;4.82;;;4.32;;
55993;SDS011;67425;52.126;20.638;2023-04-25T12:02:42;5.75;;;4.20;;
55993;SDS011;67425;52.126;20.638;2023-04-25T12:05:28;12.30;;;4.18;;
55993;SDS011;67425;52.126;20.638;2023-04-25T12:07:55;5.10;;;4.40;;
55993;SDS011;67425;52.126;20.638;2023-04-25T12:10:21;8.77;;;4.22;;
55993;SDS011;67425;52.126;20.638;2023-04-25T12:12:47;4.03;;;3.72;;
55993;SDS011;67425;52.126;20.638;2023-04-25T12:15:14;3.95;;;3.10;;
55993;SDS011;67425;52.126;20.638;2023-04-25T12:17:41;3.53;;;3.28;;
55993;SDS011;67425;52.126;20.638;2023-04-25T12:20:10;3.83;;;3.53;;
55993;SDS011;67425;52.126;20.638;2023-04-25T12:22:39;3.97;;;3.65;;
55993;SDS011;67425;52.126;20.638;2023-04-25T12:25:09;5.40;;;3.80;;
55993;SDS011;67425;52.126;20.638;2023-04-25T12:27:39;4.15;;;3.75;;
55993;SDS011;67425;52.126;20.638;2023-04-25T12:30:07;3.85;;;3.20;;
55993;SDS011;67425;52.126;20.638;2023-04-25T12:32:33;4.35;;;3.20;;
55993;SDS011;67425;52.126;20.638;2023-04-25T12:34:58;3.85;;;3.00;;
55993;SDS011;67425;52.126;20.638;2023-04-25T12:37:23;4.15;;;3.17;;
55993;SDS011;67425;52.126;20.638;2023-04-25T12:39:49;4.95;;;3.15;;
55993;SDS011;67425;52.126;20.638;2023-04-25T12:42:14;3.22;;;2.80;;
55993;SDS011;67425;52.126;20.638;2023-04-25T12:44:39;6.22;;;4.50;;
55993;SDS011;67425;52.126;20.638;2023-04-25T12:47:05;4.20;;;3.85;;
55993;SDS011;67425;52.126;20.638;2023-04-25T12:49:31;3.97;;;3.60;;
55993;SDS011;67425;52.126;20.638;2023-04-25T12:51:57;10.63;;;4.57;;
55993;SDS011;67425;52.126;20.638;2023-04-25T12:54:22;4.32;;;3.17;;
55993;SDS011;67425;52.126;20.638;2023-04-25T12:56:48;4.70;;;4.22;;
55993;SDS011;67425;52.126;20.638;2023-04-25T12:59:15;3.92;;;3.63;;
55993;SDS011;67425;52.126;20.638;2023-04-25T13:01:40;4.30;;;3.78;;
55993;SDS011;67425;52.126;20.638;2023-04-25T13:04:05;3.80;;;3.50;;
55993;SDS011;67425;52.126;20.638;2023-04-25T13:06:31;6.38;;;3.58;;
55993;SDS011;67425;52.126;20.638;2023-04-25T13:08:56;4.03;;;3.45;;
55993;SDS011;67425;52.126;20.638;2023-04-25T13:11:22;3.53;;;3.33;;
55993;SDS011;67425;52.126;20.638;2023-04-25T13:13:47;6.55;;;3.92;;
55993;SDS011;67425;52.126;20.638;2023-04-25T13:16:12;9.30;;;5.10;;
55993;SDS011;67425;52.126;20.638;2023-04-25T13:18:41;5.25;;;4.65;;
55993;SDS011;67425;52.126;20.638;2023-04-25T13:21:06;5.22;;;4.53;;
55993;SDS011;67425;52.126;20.638;2023-04-25T13:23:31;6.00;;;4.40;;
55993;SDS011;67425;52.126;20.638;2023-04-25T13:25:57;6.10;;;4.35;;
55993;SDS011;67425;52.126;20.638;2023-04-25T13:28:23;5.43;;;4.40;;
55993;SDS011;67425;52.126;20.638;2023-04-25T13:30:50;5.72;;;4.70;;
55993;SDS011;67425;52.126;20.638;2023-04-25T13:33:15;6.47;;;4.90;;
55993;SDS011;67425;52.126;20.638;2023-04-25T13:35:41;6.82;;;5.45;;
55993;SDS011;67425;52.126;20.638;2023-04-25T13:38:06;5.53;;;5.03;;
55993;SDS011;67425;52.126;20.638;2023-04-25T13:40:32;8.00;;;5.28;;
55993;SDS011;67425;52.126;20.638;2023-04-25T13:42:58;7.05;;;5.50;;
55993;SDS011;67425;52.126;20.638;2023-04-25T13:45:24;8.50;;;5.65;;
55993;SDS011;67425;52.126;20.638;2023-04-25T13:47:50;5.82;;;5.22;;
55993;SDS011;67425;52.126;20.638;2023-04-25T13:50:15;6.55;;;5.93;;
55993;SDS011;67425;52.126;20.638;2023-04-25T13:52:41;11.45;;;5.93;;
55993;SDS011;67425;52.126;20.638;2023-04-25T13:55:07;6.60;;;5.93;;
55993;SDS011;67425;52.126;20.638;2023-04-25T13:57:33;15.63;;;6.00;;
55993;SDS011;67425;52.126;20.638;2023-04-25T13:59:59;8.27;;;6.07;;
55993;SDS011;67425;52.126;20.638;2023-04-25T14:02:29;6.78;;;5.90;;
55993;SDS011;67425;52.126;20.638;2023-04-25T14:04:55;7.47;;;5.90;;
55993;SDS011;67425;52.126;20.638;2023-04-25T14:07:20;7.50;;;4.93;;
55993;SDS011;67425;52.126;20.638;2023-04-25T14:09:46;9.88;;;5.45;;
55993;SDS011;67425;52.126;20.638;2023-04-25T14:12:11;5.60;;;5.10;;
55993;SDS011;67425;52.126;20.638;2023-04-25T14:14:37;9.40;;;4.85;;
55993;SDS011;67425;52.126;20.638;2023-04-25T14:17:03;6.53;;;5.70;;
55993;SDS011;67425;52.126;20.638;2023-04-25T14:19:28;6.03;;;5.40;;
55993;SDS011;67425;52.126;20.638;2023-04-25T14:21:54;7.03;;;6.38;;
55993;SDS011;67425;52.126;20.638;2023-04-25T14:24:20;8.38;;;4.97;;
55993;SDS011;67425;52.126;20.638;2023-04-25T14:26:45;9.50;;;4.25;;
55993;SDS011;67425;52.126;20.638;2023-04-25T14:29:11;6.82;;;3.75;;
55993;SDS011;67425;52.126;20.638;2023-04-25T14:31:37;6.90;;;3.97;;